createdAt,value
2022-12-31T00:00:05.186Z,1001.37
2022-12-31T00:01:05.144Z,1001.32
2022-12-31T00:02:05.294Z,1001.39
2022-12-31T00:03:05.235Z,1001.36
2022-12-31T00:04:05.181Z,1001.37
2022-12-31T00:05:05.195Z,1001.38
2022-12-31T00:06:05.203Z,1001.36
2022-12-31T00:07:05.228Z,1001.36
2022-12-31T00:08:05.267Z,1001.43
2022-12-31T00:09:05.287Z,1001.40
2022-12-31T00:10:05.263Z,1001.45
2022-12-31T00:11:05.283Z,1001.40
2022-12-31T00:12:05.293Z,1001.41
2022-12-31T00:13:05.311Z,1001.42
2022-12-31T00:14:05.313Z,1001.42
2022-12-31T00:15:05.331Z,1001.40
2022-12-31T00:16:10.074Z,1001.45
2022-12-31T00:17:05.394Z,1001.47
2022-12-31T00:18:05.354Z,1001.44
2022-12-31T00:19:05.370Z,1001.49
2022-12-31T00:20:05.422Z,1001.47
2022-12-31T00:21:05.395Z,1001.47
2022-12-31T00:22:05.411Z,1001.54
2022-12-31T00:23:05.432Z,1001.54
2022-12-31T00:24:05.435Z,1001.60
2022-12-31T00:25:05.445Z,1001.60
2022-12-31T00:26:05.458Z,1001.56
2022-12-31T00:27:05.471Z,1001.65
2022-12-31T00:28:05.496Z,1001.65
2022-12-31T00:29:05.494Z,1001.64
2022-12-31T00:30:05.504Z,1001.66
2022-12-31T00:31:05.548Z,1001.67
2022-12-31T00:32:05.530Z,1001.67
2022-12-31T00:33:05.544Z,1001.74
2022-12-31T00:34:05.567Z,1001.69
2022-12-31T00:35:05.569Z,1001.72
2022-12-31T00:36:05.582Z,1001.61
2022-12-31T00:37:05.609Z,1001.66
2022-12-31T00:38:05.610Z,1001.64
2022-12-31T00:39:05.630Z,1001.68
2022-12-31T00:40:05.640Z,1001.73
2022-12-31T00:41:05.651Z,1001.72
2022-12-31T00:42:05.660Z,1001.70
2022-12-31T00:43:05.678Z,1001.70
2022-12-31T00:44:05.708Z,1001.64
2022-12-31T00:45:05.701Z,1001.65
2022-12-31T00:46:05.770Z,1001.75
2022-12-31T00:47:05.723Z,1001.71
2022-12-31T00:48:05.738Z,1001.70
2022-12-31T00:49:05.779Z,1001.69
2022-12-31T00:50:05.775Z,1001.70
2022-12-31T00:51:05.775Z,1001.71
2022-12-31T00:52:05.787Z,1001.66
2022-12-31T00:53:05.798Z,1001.65
2022-12-31T00:54:05.816Z,1001.67
2022-12-31T00:55:05.826Z,1001.65
2022-12-31T00:56:05.844Z,1001.68
2022-12-31T00:57:05.852Z,1001.68
2022-12-31T00:58:05.886Z,1001.67
2022-12-31T00:59:05.878Z,1001.68
2022-12-31T01:00:05.889Z,1001.73
2022-12-31T01:01:05.989Z,1001.72
2022-12-31T01:02:06.030Z,1001.75
2022-12-31T01:03:05.994Z,1001.82
2022-12-31T01:04:05.941Z,1001.84
2022-12-31T01:05:05.954Z,1001.85
2022-12-31T01:06:05.962Z,1001.94
2022-12-31T01:07:05.974Z,1001.92
2022-12-31T01:08:06.012Z,1002.02
2022-12-31T01:09:06.004Z,1002.01
2022-12-31T01:10:06.032Z,1002.07
2022-12-31T01:11:06.024Z,1002.11
2022-12-31T01:12:06.038Z,1002.10
2022-12-31T01:13:06.052Z,1002.07
2022-12-31T01:14:06.066Z,1002.15
2022-12-31T01:15:06.077Z,1002.12
2022-12-31T01:16:06.117Z,1002.10
2022-12-31T01:17:06.111Z,1002.02
2022-12-31T01:18:06.115Z,1001.99
2022-12-31T01:19:06.127Z,1001.97
2022-12-31T01:20:06.138Z,1001.98
2022-12-31T01:21:06.164Z,1001.98
2022-12-31T01:22:06.167Z,1001.97
2022-12-31T01:23:06.181Z,1001.90
2022-12-31T01:24:06.209Z,1001.89
2022-12-31T01:25:06.203Z,1001.96
2022-12-31T01:26:06.221Z,1001.98
2022-12-31T01:27:06.233Z,1002.02
2022-12-31T01:28:06.247Z,1002.01
2022-12-31T01:29:06.261Z,1002.07
2022-12-31T01:30:06.277Z,1002.03
2022-12-31T01:31:06.325Z,1002.02
2022-12-31T01:32:06.295Z,1001.97
2022-12-31T01:33:06.309Z,1001.97
2022-12-31T01:34:06.329Z,1001.97
2022-12-31T01:35:06.333Z,1002.02
2022-12-31T01:36:06.349Z,1002.07
2022-12-31T01:37:06.362Z,1002.04
2022-12-31T01:38:06.375Z,1002.04
2022-12-31T01:39:06.388Z,1002.05
2022-12-31T01:40:06.419Z,1002.08
2022-12-31T01:41:06.411Z,1002.07
2022-12-31T01:42:06.424Z,1002.05
2022-12-31T01:43:06.437Z,1002.13
2022-12-31T01:44:06.451Z,1002.15
2022-12-31T01:45:06.469Z,1002.21
2022-12-31T01:46:06.488Z,1002.15
2022-12-31T01:47:06.491Z,1002.19
2022-12-31T01:48:06.504Z,1002.19
2022-12-31T01:49:06.517Z,1002.22
2022-12-31T01:50:06.528Z,1002.24
2022-12-31T01:51:06.542Z,1002.30
2022-12-31T01:52:06.555Z,1002.25
2022-12-31T01:53:06.575Z,1002.25
2022-12-31T01:54:06.582Z,1002.25
2022-12-31T01:55:06.596Z,1002.26
2022-12-31T01:56:06.618Z,1002.24
2022-12-31T01:57:06.625Z,1002.29
2022-12-31T01:58:06.637Z,1002.23
2022-12-31T01:59:06.649Z,1002.23
2022-12-31T02:00:06.686Z,1002.19
2022-12-31T02:01:06.724Z,1002.20
2022-12-31T02:02:06.794Z,1002.26
2022-12-31T02:03:06.773Z,1002.19
2022-12-31T02:04:06.719Z,1002.20
2022-12-31T02:05:06.732Z,1002.19
2022-12-31T02:06:06.746Z,1002.23
2022-12-31T02:07:06.760Z,1002.14
2022-12-31T02:08:06.771Z,1002.24
2022-12-31T02:09:06.787Z,1002.17
2022-12-31T02:10:06.800Z,1002.25
2022-12-31T02:11:06.814Z,1002.30
2022-12-31T02:12:06.825Z,1002.32
2022-12-31T02:13:06.841Z,1002.31
2022-12-31T02:14:06.863Z,1002.36
2022-12-31T02:15:06.870Z,1002.33
2022-12-31T02:16:06.921Z,1002.31
2022-12-31T02:17:06.897Z,1002.34
2022-12-31T02:18:06.924Z,1002.36
2022-12-31T02:19:06.922Z,1002.37
2022-12-31T02:20:06.939Z,1002.40
2022-12-31T02:21:06.959Z,1002.40
2022-12-31T02:22:06.968Z,1002.44
2022-12-31T02:23:06.985Z,1002.40
2022-12-31T02:24:06.997Z,1002.40
2022-12-31T02:25:07.022Z,1002.33
2022-12-31T02:26:07.021Z,1002.29
2022-12-31T02:27:07.043Z,1002.36
2022-12-31T02:28:07.046Z,1002.32
2022-12-31T02:29:07.063Z,1002.31
2022-12-31T02:30:07.087Z,1002.33
2022-12-31T02:31:07.146Z,1002.34
2022-12-31T02:32:07.110Z,1002.33
2022-12-31T02:33:07.118Z,1002.29
2022-12-31T02:34:07.149Z,1002.26
2022-12-31T02:35:07.153Z,1002.28
2022-12-31T02:36:07.163Z,1002.23
2022-12-31T02:37:07.200Z,1002.26
2022-12-31T02:38:07.205Z,1002.25
2022-12-31T02:39:07.219Z,1002.26
2022-12-31T02:40:07.215Z,1002.29
2022-12-31T02:41:07.244Z,1002.29
2022-12-31T02:42:07.244Z,1002.24
2022-12-31T02:43:07.281Z,1002.24
2022-12-31T02:44:07.272Z,1002.23
2022-12-31T02:45:07.283Z,1002.26
2022-12-31T02:46:07.331Z,1002.23
2022-12-31T02:47:07.310Z,1002.27
2022-12-31T02:48:07.327Z,1002.23
2022-12-31T02:49:07.347Z,1002.26
2022-12-31T02:50:07.358Z,1002.24
2022-12-31T02:51:07.376Z,1002.28
2022-12-31T02:52:07.384Z,1002.29
2022-12-31T02:53:07.399Z,1002.32
2022-12-31T02:54:07.415Z,1002.31
2022-12-31T02:55:07.429Z,1002.32
2022-12-31T02:56:07.439Z,1002.29
2022-12-31T02:57:07.451Z,1002.31
2022-12-31T02:58:07.494Z,1002.28
2022-12-31T02:59:07.483Z,1002.30
2022-12-31T03:00:07.524Z,1002.29
2022-12-31T03:01:07.594Z,1002.28
2022-12-31T03:02:07.729Z,1002.28
2022-12-31T03:03:07.541Z,1002.28
2022-12-31T03:04:07.556Z,1002.24
2022-12-31T03:05:07.568Z,1002.23
2022-12-31T03:06:07.583Z,1002.26
2022-12-31T03:07:07.596Z,1002.26
2022-12-31T03:08:07.614Z,1002.19
2022-12-31T03:09:07.626Z,1002.19
2022-12-31T03:10:07.641Z,1002.19
2022-12-31T03:11:07.652Z,1002.24
2022-12-31T03:12:07.666Z,1002.20
2022-12-31T03:13:07.681Z,1002.23
2022-12-31T03:14:07.700Z,1002.22
2022-12-31T03:15:07.712Z,1002.19
2022-12-31T03:16:07.743Z,1002.19
2022-12-31T03:17:07.739Z,1002.16
2022-12-31T03:18:07.751Z,1002.15
2022-12-31T03:19:07.766Z,1002.15
2022-12-31T03:20:07.780Z,1002.15
2022-12-31T03:21:07.799Z,1002.20
2022-12-31T03:22:07.812Z,1002.20
2022-12-31T03:23:07.823Z,1002.20
2022-12-31T03:24:07.839Z,1002.20
2022-12-31T03:25:07.853Z,1002.18
2022-12-31T03:26:07.866Z,1002.18
2022-12-31T03:27:07.881Z,1002.18
2022-12-31T03:28:07.898Z,1002.17
2022-12-31T03:29:07.909Z,1002.16
2022-12-31T03:30:07.927Z,1002.10
2022-12-31T03:31:08.035Z,1002.13
2022-12-31T03:32:07.956Z,1002.16
2022-12-31T03:33:07.980Z,1002.13
2022-12-31T03:34:07.981Z,1002.15
2022-12-31T03:35:07.999Z,1002.12
2022-12-31T03:36:08.011Z,1002.11
2022-12-31T03:37:08.036Z,1002.09
2022-12-31T03:38:08.043Z,1002.12
2022-12-31T03:39:08.055Z,1002.07
2022-12-31T03:40:08.069Z,1002.09
2022-12-31T03:41:08.085Z,1002.13
2022-12-31T03:42:08.099Z,1002.09
2022-12-31T03:43:08.111Z,1002.06
2022-12-31T03:44:08.131Z,1002.06
2022-12-31T03:45:08.147Z,1001.99
2022-12-31T03:46:08.194Z,1001.97
2022-12-31T03:47:08.170Z,1001.98
2022-12-31T03:48:08.203Z,1002.01
2022-12-31T03:49:08.205Z,1001.98
2022-12-31T03:50:08.220Z,1001.96
2022-12-31T03:51:08.228Z,1001.93
2022-12-31T03:52:08.247Z,1001.93
2022-12-31T03:53:08.258Z,1001.85
2022-12-31T03:54:08.288Z,1001.87
2022-12-31T03:55:08.290Z,1001.82
2022-12-31T03:56:08.300Z,1001.87
2022-12-31T03:57:08.315Z,1001.82
2022-12-31T03:58:08.328Z,1001.76
2022-12-31T03:59:08.341Z,1001.71
2022-12-31T04:00:08.360Z,1001.76
2022-12-31T04:01:08.507Z,1001.72
2022-12-31T04:02:08.538Z,1001.75
2022-12-31T04:03:08.470Z,1001.78
2022-12-31T04:04:08.418Z,1001.79
2022-12-31T04:05:08.451Z,1001.80
2022-12-31T04:06:08.445Z,1001.81
2022-12-31T04:07:08.462Z,1001.86
2022-12-31T04:08:08.480Z,1001.81
2022-12-31T04:09:08.485Z,1001.83
2022-12-31T04:10:08.511Z,1001.79
2022-12-31T04:11:08.515Z,1001.86
2022-12-31T04:12:08.530Z,1001.88
2022-12-31T04:13:08.550Z,1001.87
2022-12-31T04:14:08.561Z,1001.90
2022-12-31T04:15:08.572Z,1001.89
2022-12-31T04:16:08.635Z,1001.87
2022-12-31T04:17:08.603Z,1001.87
2022-12-31T04:18:08.623Z,1001.79
2022-12-31T04:19:08.635Z,1001.81
2022-12-31T04:20:08.644Z,1001.84
2022-12-31T04:21:08.660Z,1001.82
2022-12-31T04:22:08.673Z,1001.80
2022-12-31T04:23:08.691Z,1001.76
2022-12-31T04:24:08.705Z,1001.82
2022-12-31T04:25:08.718Z,1001.78
2022-12-31T04:26:08.734Z,1001.83
2022-12-31T04:27:08.748Z,1001.79
2022-12-31T04:28:08.760Z,1001.78
2022-12-31T04:29:08.777Z,1001.87
2022-12-31T04:30:08.804Z,1001.83
2022-12-31T04:31:08.805Z,1001.86
2022-12-31T04:32:08.854Z,1001.84
2022-12-31T04:33:08.847Z,1001.84
2022-12-31T04:34:08.856Z,1001.89
2022-12-31T04:35:08.868Z,1001.80
2022-12-31T04:36:08.883Z,1001.82
2022-12-31T04:37:08.895Z,1001.85
2022-12-31T04:38:08.907Z,1001.82
2022-12-31T04:39:08.921Z,1001.81
2022-12-31T04:40:08.969Z,1001.81
2022-12-31T04:41:08.949Z,1001.78
2022-12-31T04:42:08.964Z,1001.80
2022-12-31T04:43:08.977Z,1001.79
2022-12-31T04:44:08.994Z,1001.78
2022-12-31T04:45:09.030Z,1001.75
2022-12-31T04:46:09.064Z,1001.79
2022-12-31T04:47:09.048Z,1001.71
2022-12-31T04:48:09.071Z,1001.71
2022-12-31T04:49:09.068Z,1001.70
2022-12-31T04:50:09.081Z,1001.60
2022-12-31T04:51:09.107Z,1001.58
2022-12-31T04:52:09.115Z,1001.52
2022-12-31T04:53:09.124Z,1001.48
2022-12-31T04:54:09.147Z,1001.38
2022-12-31T04:55:09.151Z,1001.35
2022-12-31T04:56:09.168Z,1001.35
2022-12-31T04:57:09.185Z,1001.32
2022-12-31T04:58:09.199Z,1001.31
2022-12-31T04:59:09.209Z,1001.35
2022-12-31T05:00:09.224Z,1001.39
2022-12-31T05:01:09.343Z,1001.39
2022-12-31T05:02:09.403Z,1001.43
2022-12-31T05:03:09.298Z,1001.42
2022-12-31T05:04:09.294Z,1001.40
2022-12-31T05:05:09.301Z,1001.38
2022-12-31T05:06:09.311Z,1001.26
2022-12-31T05:07:09.334Z,1001.32
2022-12-31T05:08:09.344Z,1001.35
2022-12-31T05:09:09.357Z,1001.34
2022-12-31T05:10:09.371Z,1001.37
2022-12-31T05:11:09.385Z,1001.37
2022-12-31T05:12:09.399Z,1001.36
2022-12-31T05:13:09.415Z,1001.32
2022-12-31T05:14:09.441Z,1001.37
2022-12-31T05:15:09.446Z,1001.34
2022-12-31T05:16:09.460Z,1001.36
2022-12-31T05:17:09.472Z,1001.43
2022-12-31T05:18:09.494Z,1001.43
2022-12-31T05:19:09.526Z,1001.45
2022-12-31T05:20:09.521Z,1001.43
2022-12-31T05:21:09.535Z,1001.43
2022-12-31T05:22:09.545Z,1001.48
2022-12-31T05:23:09.564Z,1001.57
2022-12-31T05:24:09.574Z,1001.56
2022-12-31T05:25:09.596Z,1001.57
2022-12-31T05:26:09.605Z,1001.54
2022-12-31T05:27:09.622Z,1001.56
2022-12-31T05:28:09.634Z,1001.54
2022-12-31T05:29:09.648Z,1001.56
2022-12-31T05:30:09.676Z,1001.56
2022-12-31T05:31:09.728Z,1001.52
2022-12-31T05:32:09.715Z,1001.55
2022-12-31T05:33:09.708Z,1001.52
2022-12-31T05:34:09.725Z,1001.54
2022-12-31T05:35:09.738Z,1001.54
2022-12-31T05:36:09.750Z,1001.49
2022-12-31T05:37:09.770Z,1001.52
2022-12-31T05:38:09.782Z,1001.45
2022-12-31T05:39:09.794Z,1001.38
2022-12-31T05:40:09.807Z,1001.37
2022-12-31T05:41:09.822Z,1001.30
2022-12-31T05:42:09.839Z,1001.24
2022-12-31T05:43:09.857Z,1001.17
2022-12-31T05:44:09.868Z,1001.15
2022-12-31T05:45:09.882Z,1001.09
2022-12-31T05:46:09.948Z,1001.09
2022-12-31T05:47:09.911Z,1001.09
2022-12-31T05:48:09.926Z,1001.09
2022-12-31T05:49:09.942Z,1001.08
2022-12-31T05:50:09.953Z,1001.12
2022-12-31T05:51:09.965Z,1001.02
2022-12-31T05:52:09.992Z,1001.03
2022-12-31T05:53:10.017Z,1001.00
2022-12-31T05:54:10.040Z,1000.98
2022-12-31T05:55:10.034Z,1001.05
2022-12-31T05:56:10.040Z,1001.05
2022-12-31T05:57:10.062Z,1001.06
2022-12-31T05:58:10.070Z,1001.03
2022-12-31T05:59:10.083Z,1001.02
2022-12-31T06:00:10.108Z,1001.00
2022-12-31T06:01:10.137Z,1000.94
2022-12-31T06:02:10.138Z,1000.88
2022-12-31T06:03:10.285Z,1000.86
2022-12-31T06:04:10.154Z,1000.87
2022-12-31T06:05:10.170Z,1000.89
2022-12-31T06:06:10.186Z,1000.89
2022-12-31T06:07:10.197Z,1000.83
2022-12-31T06:08:10.218Z,1000.85
2022-12-31T06:09:10.234Z,1000.83
2022-12-31T06:10:10.244Z,1000.84
2022-12-31T06:11:10.255Z,1000.80
2022-12-31T06:12:10.280Z,1000.82
2022-12-31T06:13:10.289Z,1000.81
2022-12-31T06:14:10.301Z,1000.83
2022-12-31T06:15:10.315Z,1000.80
2022-12-31T06:16:10.390Z,1000.77
2022-12-31T06:17:10.349Z,1000.73
2022-12-31T06:18:10.369Z,1000.73
2022-12-31T06:19:10.379Z,1000.73
2022-12-31T06:20:13.092Z,1000.72
2022-12-31T06:21:10.401Z,1000.75
2022-12-31T06:22:10.416Z,1000.75
2022-12-31T06:23:10.432Z,1000.68
2022-12-31T06:24:10.443Z,1000.78
2022-12-31T06:25:10.470Z,1000.71
2022-12-31T06:26:10.476Z,1000.75
2022-12-31T06:27:10.491Z,1000.67
2022-12-31T06:28:16.059Z,1000.74
2022-12-31T06:29:10.519Z,1000.74
2022-12-31T06:30:10.546Z,1000.76
2022-12-31T06:31:10.569Z,1000.76
2022-12-31T06:32:10.562Z,1000.74
2022-12-31T06:33:10.578Z,1000.72
2022-12-31T06:34:10.608Z,1000.74
2022-12-31T06:35:10.633Z,1000.74
2022-12-31T06:36:10.622Z,1000.67
2022-12-31T06:37:10.645Z,1000.74
2022-12-31T06:38:10.653Z,1000.72
2022-12-31T06:39:10.666Z,1000.78
2022-12-31T06:40:10.683Z,1000.69
2022-12-31T06:41:10.702Z,1000.80
2022-12-31T06:42:10.711Z,1000.86
2022-12-31T06:43:10.725Z,1000.90
2022-12-31T06:44:10.748Z,1000.83
2022-12-31T06:45:10.772Z,1000.76
2022-12-31T06:46:10.806Z,1000.73
2022-12-31T06:47:10.783Z,1000.71
2022-12-31T06:48:10.801Z,1000.76
2022-12-31T06:49:10.814Z,1000.82
2022-12-31T06:50:10.828Z,1000.79
2022-12-31T06:51:15.123Z,1000.81
2022-12-31T06:52:10.857Z,1000.81
2022-12-31T06:53:10.874Z,1000.78
2022-12-31T06:54:10.890Z,1000.71
2022-12-31T06:55:10.905Z,1000.75
2022-12-31T06:56:10.919Z,1000.66
2022-12-31T06:57:10.933Z,1000.66
2022-12-31T06:58:10.951Z,1000.65
2022-12-31T06:59:10.990Z,1000.63
2022-12-31T07:00:10.986Z,1000.66
2022-12-31T07:01:11.021Z,1000.63
2022-12-31T07:02:11.039Z,1000.64
2022-12-31T07:03:11.146Z,1000.70
2022-12-31T07:04:11.048Z,1000.62
2022-12-31T07:05:11.058Z,1000.69
2022-12-31T07:06:11.065Z,1000.67
2022-12-31T07:07:11.081Z,1000.67
2022-12-31T07:08:11.096Z,1000.62
2022-12-31T07:09:11.114Z,1000.64
2022-12-31T07:10:11.140Z,1000.67
2022-12-31T07:11:11.140Z,1000.75
2022-12-31T07:12:11.158Z,1000.64
2022-12-31T07:13:11.170Z,1000.54
2022-12-31T07:14:11.187Z,1000.56
2022-12-31T07:15:11.201Z,1000.51
2022-12-31T07:16:11.296Z,1000.53
2022-12-31T07:17:11.231Z,1000.48
2022-12-31T07:18:11.253Z,1000.53
2022-12-31T07:19:11.379Z,1000.58
2022-12-31T07:20:11.286Z,1000.56
2022-12-31T07:21:11.294Z,1000.63
2022-12-31T07:22:11.310Z,1000.64
2022-12-31T07:23:11.326Z,1000.51
2022-12-31T07:24:11.353Z,1000.41
2022-12-31T07:25:11.352Z,1000.50
2022-12-31T07:26:11.371Z,1000.55
2022-12-31T07:27:11.386Z,1000.46
2022-12-31T07:28:11.401Z,1000.51
2022-12-31T07:29:11.414Z,1000.51
2022-12-31T07:30:11.431Z,1000.58
2022-12-31T07:31:11.531Z,1000.44
2022-12-31T07:32:11.459Z,1000.61
2022-12-31T07:33:11.485Z,1000.51
2022-12-31T07:34:11.496Z,1000.60
2022-12-31T07:35:11.514Z,1000.58
2022-12-31T07:36:11.521Z,1000.61
2022-12-31T07:37:11.535Z,1000.53
2022-12-31T07:38:11.565Z,1000.53
2022-12-31T07:39:11.588Z,1000.42
2022-12-31T07:40:11.582Z,1000.49
2022-12-31T07:41:11.597Z,1000.49
2022-12-31T07:42:11.614Z,1000.58
2022-12-31T07:43:11.628Z,1000.63
2022-12-31T07:44:11.647Z,1000.57
2022-12-31T07:45:11.660Z,1000.57
2022-12-31T07:46:11.755Z,1000.59
2022-12-31T07:47:11.692Z,1000.56
2022-12-31T07:48:11.707Z,1000.54
2022-12-31T07:49:11.722Z,1000.58
2022-12-31T07:50:11.740Z,1000.64
2022-12-31T07:51:11.762Z,1000.63
2022-12-31T07:52:11.769Z,1000.75
2022-12-31T07:53:11.784Z,1000.72
2022-12-31T07:54:14.243Z,1000.70
2022-12-31T07:55:11.819Z,1000.72
2022-12-31T07:56:11.835Z,1000.77
2022-12-31T07:57:11.848Z,1000.74
2022-12-31T07:58:11.874Z,1000.83
2022-12-31T07:59:11.878Z,1000.83
2022-12-31T08:00:11.903Z,1000.73
2022-12-31T08:01:12.114Z,1000.70
2022-12-31T08:02:12.130Z,1000.79
2022-12-31T08:03:11.943Z,1000.82
2022-12-31T08:04:11.958Z,1000.82
2022-12-31T08:05:11.979Z,1000.89
2022-12-31T08:06:12.000Z,1000.90
2022-12-31T08:07:12.003Z,1000.86
2022-12-31T08:08:12.021Z,1000.88
2022-12-31T08:09:12.037Z,1000.80
2022-12-31T08:10:17.488Z,1000.88
2022-12-31T08:11:12.068Z,1000.90
2022-12-31T08:12:12.088Z,1000.85
2022-12-31T08:13:12.108Z,1000.89
2022-12-31T08:14:12.134Z,1000.84
2022-12-31T08:15:12.142Z,1000.91
2022-12-31T08:16:12.195Z,1000.88
2022-12-31T08:17:12.178Z,1000.90
2022-12-31T08:18:12.184Z,1000.82
2022-12-31T08:19:12.200Z,1000.80
2022-12-31T08:20:12.220Z,1000.88
2022-12-31T08:21:12.234Z,1000.85
2022-12-31T08:22:12.248Z,1000.89
2022-12-31T08:23:12.264Z,1000.84
2022-12-31T08:24:12.280Z,1000.85
2022-12-31T08:25:12.307Z,1000.88
2022-12-31T08:26:12.313Z,1000.85
2022-12-31T08:27:12.339Z,1000.94
2022-12-31T08:28:12.360Z,1000.90
2022-12-31T08:29:12.362Z,1000.89
2022-12-31T08:30:12.393Z,1001.00
2022-12-31T08:31:12.446Z,1000.90
2022-12-31T08:32:12.422Z,1000.91
2022-12-31T08:33:12.433Z,1000.85
2022-12-31T08:34:12.445Z,1000.76
2022-12-31T08:35:12.462Z,1000.88
2022-12-31T08:36:12.477Z,1000.82
2022-12-31T08:37:12.503Z,1000.81
2022-12-31T08:38:12.518Z,1000.80
2022-12-31T08:39:12.528Z,1000.93
2022-12-31T08:40:12.546Z,1000.96
2022-12-31T08:41:12.563Z,1000.95
2022-12-31T08:42:12.589Z,1000.99
2022-12-31T08:43:12.597Z,1000.96
2022-12-31T08:44:12.620Z,1001.01
2022-12-31T08:45:12.627Z,1001.00
2022-12-31T08:46:12.664Z,1000.96
2022-12-31T08:47:12.674Z,1000.89
2022-12-31T08:48:12.677Z,1000.90
2022-12-31T08:49:12.694Z,1000.93
2022-12-31T08:50:12.710Z,1000.95
2022-12-31T08:51:12.746Z,1000.92
2022-12-31T08:52:12.746Z,1001.01
2022-12-31T08:53:12.763Z,1000.98
2022-12-31T08:54:12.794Z,1001.08
2022-12-31T08:55:12.808Z,1001.04
2022-12-31T08:56:12.823Z,1001.01
2022-12-31T08:57:12.830Z,1001.04
2022-12-31T08:58:12.854Z,1001.07
2022-12-31T08:59:12.864Z,1001.10
2022-12-31T09:00:12.894Z,1001.13
2022-12-31T09:01:13.011Z,1001.16
2022-12-31T09:02:12.992Z,1001.16
2022-12-31T09:03:12.940Z,1001.21
2022-12-31T09:04:12.998Z,1001.19
2022-12-31T09:05:12.971Z,1001.21
2022-12-31T09:06:12.993Z,1001.23
2022-12-31T09:07:13.001Z,1001.33
2022-12-31T09:08:13.017Z,1001.20
2022-12-31T09:09:13.035Z,1001.34
2022-12-31T09:10:13.052Z,1001.26
2022-12-31T09:11:16.382Z,1001.28
2022-12-31T09:12:13.089Z,1001.26
2022-12-31T09:13:13.112Z,1001.23
2022-12-31T09:14:13.122Z,1001.12
2022-12-31T09:15:13.141Z,1001.19
2022-12-31T09:16:13.198Z,1001.26
2022-12-31T09:17:13.173Z,1001.25
2022-12-31T09:18:13.193Z,1001.31
2022-12-31T09:19:13.210Z,1001.31
2022-12-31T09:20:13.228Z,1001.23
2022-12-31T09:21:13.249Z,1001.28
2022-12-31T09:22:13.264Z,1001.30
2022-12-31T09:23:13.342Z,1001.29
2022-12-31T09:24:13.296Z,1001.34
2022-12-31T09:25:13.334Z,1001.28
2022-12-31T09:26:13.339Z,1001.26
2022-12-31T09:27:13.358Z,1001.28
2022-12-31T09:28:13.366Z,1001.24
2022-12-31T09:29:13.393Z,1001.24
2022-12-31T09:30:13.401Z,1001.19
2022-12-31T09:31:13.421Z,1001.15
2022-12-31T09:32:13.443Z,1001.16
2022-12-31T09:33:13.457Z,1001.17
2022-12-31T09:34:13.477Z,1001.16
2022-12-31T09:35:13.488Z,1001.19
2022-12-31T09:36:13.511Z,1001.25
2022-12-31T09:37:13.531Z,1001.17
2022-12-31T09:38:13.551Z,1001.08
2022-12-31T09:39:13.584Z,1001.19
2022-12-31T09:40:13.583Z,1001.12
2022-12-31T09:41:13.614Z,1001.13
2022-12-31T09:42:13.621Z,1001.07
2022-12-31T09:43:13.634Z,1001.05
2022-12-31T09:44:13.661Z,1001.11
2022-12-31T09:45:13.672Z,1001.00
2022-12-31T09:46:13.735Z,1001.09
2022-12-31T09:47:13.711Z,1001.08
2022-12-31T09:48:13.749Z,1001.04
2022-12-31T09:49:13.752Z,1001.03
2022-12-31T09:50:13.824Z,1001.07
2022-12-31T09:51:13.784Z,1001.07
2022-12-31T09:52:13.805Z,1001.15
2022-12-31T09:53:13.820Z,1001.12
2022-12-31T09:54:13.841Z,1001.08
2022-12-31T09:55:13.857Z,1001.06
2022-12-31T09:56:13.882Z,1000.95
2022-12-31T09:57:13.894Z,1000.95
2022-12-31T09:58:13.925Z,1000.93
2022-12-31T09:59:13.941Z,1000.98
2022-12-31T10:00:13.951Z,1001.02
2022-12-31T10:01:14.106Z,1000.95
2022-12-31T10:02:14.133Z,1001.01
2022-12-31T10:03:14.038Z,1000.98
2022-12-31T10:04:14.029Z,1001.01
2022-12-31T10:05:14.048Z,1000.97
2022-12-31T10:06:14.065Z,1001.01
2022-12-31T10:07:14.088Z,1001.00
2022-12-31T10:08:14.109Z,1001.02
2022-12-31T10:09:14.120Z,1000.93
2022-12-31T10:10:14.141Z,1000.90
2022-12-31T10:11:14.160Z,1001.00
2022-12-31T10:12:14.188Z,1000.97
2022-12-31T10:13:14.198Z,1000.96
2022-12-31T10:14:14.217Z,1001.03
2022-12-31T10:15:14.235Z,1001.00
2022-12-31T10:16:14.256Z,1001.03
2022-12-31T10:17:14.332Z,1001.07
2022-12-31T10:18:14.304Z,1000.89
2022-12-31T10:19:14.327Z,1001.03
2022-12-31T10:20:14.333Z,1001.06
2022-12-31T10:21:14.354Z,1001.08
2022-12-31T10:22:14.373Z,1001.13
2022-12-31T10:23:14.390Z,1001.18
2022-12-31T10:24:14.412Z,1001.05
2022-12-31T10:25:14.428Z,1001.21
2022-12-31T10:26:14.450Z,1001.14
2022-12-31T10:27:14.469Z,1001.06
2022-12-31T10:28:14.492Z,1001.25
2022-12-31T10:29:14.505Z,1001.31
2022-12-31T10:30:14.526Z,1001.35
2022-12-31T10:31:14.600Z,1001.39
2022-12-31T10:32:14.580Z,1001.27
2022-12-31T10:33:14.581Z,1001.34
2022-12-31T10:34:14.602Z,1001.24
2022-12-31T10:35:14.620Z,1001.25
2022-12-31T10:36:14.636Z,1001.19
2022-12-31T10:37:14.656Z,1001.29
2022-12-31T10:38:14.675Z,1001.37
2022-12-31T10:39:20.481Z,1001.31
2022-12-31T10:40:14.732Z,1001.45
2022-12-31T10:41:14.734Z,1001.41
2022-12-31T10:42:14.764Z,1001.55
2022-12-31T10:43:14.771Z,1001.57
2022-12-31T10:44:14.794Z,1001.42
2022-12-31T10:45:14.821Z,1001.58
2022-12-31T10:46:19.127Z,1001.63
2022-12-31T10:47:14.846Z,1001.66
2022-12-31T10:48:14.871Z,1001.67
2022-12-31T10:49:14.893Z,1001.56
2022-12-31T10:50:14.912Z,1001.64
2022-12-31T10:51:14.923Z,1001.64
2022-12-31T10:52:14.948Z,1001.66
2022-12-31T10:53:14.964Z,1001.64
2022-12-31T10:54:14.985Z,1001.78
2022-12-31T10:55:15.001Z,1001.70
2022-12-31T10:56:15.024Z,1001.69
2022-12-31T10:57:15.045Z,1001.78
2022-12-31T10:58:15.059Z,1001.80
2022-12-31T10:59:15.089Z,1001.70
2022-12-31T11:00:15.099Z,1001.81
2022-12-31T11:01:15.156Z,1001.75
2022-12-31T11:02:15.277Z,1001.85
2022-12-31T11:03:15.204Z,1001.78
2022-12-31T11:04:15.178Z,1001.78
2022-12-31T11:05:15.203Z,1001.83
2022-12-31T11:06:15.254Z,1001.85
2022-12-31T11:07:15.236Z,1001.77
2022-12-31T11:08:15.250Z,1001.84
2022-12-31T11:09:15.269Z,1001.81
2022-12-31T11:10:15.411Z,1001.92
2022-12-31T11:11:15.307Z,1001.87
2022-12-31T11:12:15.336Z,1001.92
2022-12-31T11:13:15.352Z,1001.93
2022-12-31T11:14:15.365Z,1001.92
2022-12-31T11:15:15.383Z,1002.02
2022-12-31T11:16:15.471Z,1002.10
2022-12-31T11:17:15.426Z,1002.01
2022-12-31T11:18:15.444Z,1002.03
2022-12-31T11:19:15.616Z,1001.99
2022-12-31T11:20:15.525Z,1001.96
2022-12-31T11:21:15.505Z,1002.06
2022-12-31T11:22:15.519Z,1001.99
2022-12-31T11:23:15.544Z,1002.01
2022-12-31T11:24:15.635Z,1002.04
2022-12-31T11:25:15.575Z,1002.00
2022-12-31T11:26:15.594Z,1002.00
2022-12-31T11:27:15.613Z,1001.96
2022-12-31T11:28:15.631Z,1001.98
2022-12-31T11:29:15.652Z,1001.93
2022-12-31T11:30:15.743Z,1001.97
2022-12-31T11:31:15.763Z,1002.00
2022-12-31T11:32:15.714Z,1001.98
2022-12-31T11:33:15.732Z,1001.93
2022-12-31T11:34:15.746Z,1001.96
2022-12-31T11:35:15.771Z,1001.93
2022-12-31T11:36:15.784Z,1001.92
2022-12-31T11:37:15.805Z,1001.94
2022-12-31T11:38:15.824Z,1001.85
2022-12-31T11:39:15.848Z,1001.77
2022-12-31T11:40:15.864Z,1001.79
2022-12-31T11:41:15.884Z,1001.78
2022-12-31T11:42:15.905Z,1001.80
2022-12-31T11:43:15.922Z,1001.75
2022-12-31T11:44:15.945Z,1001.57
2022-12-31T11:45:15.967Z,1001.71
2022-12-31T11:46:16.065Z,1001.65
2022-12-31T11:47:15.998Z,1001.63
2022-12-31T11:48:32.153Z,1001.63
2022-12-31T11:49:16.037Z,1001.66
2022-12-31T11:50:16.067Z,1001.65
2022-12-31T11:51:16.104Z,1001.75
2022-12-31T11:52:21.021Z,1001.66
2022-12-31T11:53:16.114Z,1001.64
2022-12-31T11:54:16.135Z,1001.68
2022-12-31T11:55:16.151Z,1001.73
2022-12-31T11:56:16.174Z,1001.71
2022-12-31T11:57:16.192Z,1001.62
2022-12-31T11:58:16.217Z,1001.66
2022-12-31T11:59:19.618Z,1001.63
2022-12-31T12:00:16.252Z,1001.60
2022-12-31T12:01:16.283Z,1001.63
2022-12-31T12:02:16.295Z,1001.64
2022-12-31T12:03:16.311Z,1001.64
2022-12-31T12:04:16.355Z,1001.58
2022-12-31T12:05:16.350Z,1001.62